Time;durP1;ratioP1;P1;durP2;ratioP2;P2;SDS_P1;SDS_P2;PMS_P1;PMS_P2;Temp;Humidity;BMP_temperature;BMP_pressure;BME280_temperature;BME280_humidity;BME280_pressure;Samples;Min_cycle;Max_cycle;Signal;HPM_P1;HPM_P2
2022/06/15 00:01:45;;;;;;;4.70;1.42;;;15.90;83.60;;;;;;5030064;28;20400;-71
2022/06/15 00:04:12;;;;;;;3.78;1.60;;;15.90;81.90;;;;;;5025817;28;20115;-71
2022/06/15 00:06:41;;;;;;;3.42;1.55;;;16.00;81.60;;;;;;5027693;28;20043;-71
2022/06/15 00:09:10;;;;;;;5.07;1.17;;;16.00;80.90;;;;;;5032135;28;20041;-71
2022/06/15 00:11:40;;;;;;;5.18;1.50;;;16.10;81.70;;;;;;5030368;28;20055;-71
2022/06/15 00:14:14;;;;;;;3.50;1.40;;;16.10;80.50;;;;;;5035181;28;20048;-71
2022/06/15 00:16:41;;;;;;;4.22;1.48;;;16.10;81.30;;;;;;5032510;28;20056;-71
2022/06/15 00:19:09;;;;;;;3.70;1.35;;;16.10;81.40;;;;;;5038663;28;20508;-71
2022/06/15 00:21:36;;;;;;;3.70;1.73;;;16.10;82.20;;;;;;5037360;28;20036;-71
2022/06/15 00:24:04;;;;;;;2.67;1.60;;;16.10;81.80;;;;;;5035382;28;20061;-71
2022/06/15 00:26:31;;;;;;;2.17;1.48;;;16.00;82.30;;;;;;5036335;28;20041;-71
2022/06/15 00:28:58;;;;;;;2.90;1.27;;;16.10;82.30;;;;;;5047949;28;20049;-71
2022/06/15 00:31:25;;;;;;;2.63;1.23;;;16.00;82.50;;;;;;5019670;28;20449;-71
2022/06/15 00:33:52;;;;;;;2.00;1.13;;;15.90;83.60;;;;;;5019599;28;20049;-71
2022/06/15 00:36:21;;;;;;;2.63;1.27;;;15.90;83.40;;;;;;5039494;28;20395;-71
2022/06/15 00:38:51;;;;;;;4.43;1.48;;;15.80;84.30;;;;;;5038050;28;20443;-71
2022/06/15 00:41:21;;;;;;;1.83;1.33;;;15.80;84.30;;;;;;5037087;28;20053;-71
2022/06/15 00:43:51;;;;;;;5.28;1.35;;;15.80;85.50;;;;;;5031898;28;20052;-71
2022/06/15 00:46:38;;;;;;;2.97;1.50;;;15.70;85.30;;;;;;5032992;28;22845;-71
2022/06/15 00:49:13;;;;;;;3.13;1.23;;;15.70;85.70;;;;;;5020710;28;20511;-71
2022/06/15 00:51:41;;;;;;;3.30;1.45;;;15.70;86.00;;;;;;5021192;28;20049;-71
2022/06/15 00:54:08;;;;;;;5.53;1.75;;;15.70;86.70;;;;;;5021925;28;20106;-71
2022/06/15 00:56:38;;;;;;;3.05;1.50;;;15.60;86.40;;;;;;5020636;28;20091;-71
2022/06/15 00:59:28;;;;;;;4.30;1.60;;;15.60;86.60;;;;;;5038021;28;20047;-71
2022/06/15 01:01:55;;;;;;;3.45;1.95;;;15.50;87.50;;;;;;5044750;28;20042;-71
2022/06/15 01:04:23;;;;;;;2.85;1.48;;;15.50;87.50;;;;;;5034334;28;20786;-71
2022/06/15 01:07:05;;;;;;;2.17;1.63;;;15.50;86.90;;;;;;5028037;28;20046;-71
2022/06/15 01:10:10;;;;;;;2.60;1.40;;;15.50;86.40;;;;;;5035682;28;20051;-71
2022/06/15 01:13:18;;;;;;;5.03;1.65;;;15.50;86.70;;;;;;5020634;28;20072;-71
2022/06/15 01:15:45;;;;;;;3.45;1.88;;;15.50;86.70;;;;;;5035444;28;20096;-71
2022/06/15 01:18:20;;;;;;;2.58;1.60;;;15.40;86.70;;;;;;5035746;28;20049;-70
2022/06/15 01:21:17;;;;;;;5.53;2.60;;;15.40;87.20;;;;;;5014939;28;20451;-71
2022/06/15 01:23:45;;;;;;;4.53;2.15;;;15.40;86.70;;;;;;5033411;28;20489;-72
2022/06/15 01:26:34;;;;;;;3.47;1.67;;;15.30;86.70;;;;;;5033347;28;20400;-70
2022/06/15 01:29:10;;;;;;;3.55;1.58;;;15.30;88.00;;;;;;5021086;28;20140;-70
2022/06/15 01:32:11;;;;;;;7.30;2.28;;;15.30;88.10;;;;;;5030600;28;20059;-70
2022/06/15 01:34:50;;;;;;;3.20;1.70;;;15.30;88.70;;;;;;5037277;28;20583;-70
2022/06/15 01:37:20;;;;;;;5.85;1.75;;;15.20;89.20;;;;;;5033950;28;20106;-71
2022/06/15 01:40:06;;;;;;;3.42;1.45;;;15.20;89.50;;;;;;5036532;28;20404;-71
2022/06/15 01:43:00;;;;;;;5.72;1.73;;;15.10;89.60;;;;;;5033091;28;20503;-71
2022/06/15 01:45:31;;;;;;;6.07;1.65;;;15.20;90.00;;;;;;5032061;28;20385;-71
2022/06/15 01:48:03;;;;;;;2.88;1.58;;;15.20;90.00;;;;;;5030305;28;20505;-71
2022/06/15 01:50:58;;;;;;;4.97;1.87;;;15.10;90.10;;;;;;5034611;28;20065;-71
2022/06/15 01:53:34;;;;;;;3.38;1.75;;;15.10;90.70;;;;;;5031099;28;20061;-71
2022/06/15 01:56:22;;;;;;;4.22;1.95;;;15.10;90.70;;;;;;5043505;28;20067;-70
2022/06/15 01:59:06;;;;;;;4.82;1.35;;;15.00;90.90;;;;;;5018712;28;20060;-70
2022/06/15 02:01:58;;;;;;;3.70;1.48;;;15.00;90.90;;;;;;5033851;28;20037;-70
2022/06/15 02:04:48;;;;;;;3.10;1.90;;;14.90;90.50;;;;;;5012471;28;20081;-71
2022/06/15 02:07:22;;;;;;;3.20;1.58;;;14.80;90.70;;;;;;5019260;28;20071;-71
2022/06/15 02:09:58;;;;;;;4.15;1.77;;;14.80;90.40;;;;;;5020646;28;20037;-71
2022/06/15 02:12:59;;;;;;;5.30;1.52;;;14.80;90.50;;;;;;5030831;28;20059;-71
2022/06/15 02:15:29;;;;;;;4.32;1.70;;;14.80;90.80;;;;;;5034274;28;20041;-71
2022/06/15 02:18:02;;;;;;;;;;;14.80;91.40;;;;;;5027856;28;20049;-71
2022/06/15 02:20:36;;;;;;;4.78;1.60;;;14.80;91.10;;;;;;5035954;28;20444;-71
2022/06/15 02:23:07;;;;;;;3.65;1.80;;;14.80;91.30;;;;;;5035631;28;20037;-71
2022/06/15 02:25:43;;;;;;;2.90;1.48;;;14.80;91.50;;;;;;5035894;28;20106;-71
2022/06/15 02:28:12;;;;;;;4.72;2.10;;;14.80;91.80;;;;;;5036476;28;20941;-71
2022/06/15 02:30:42;;;;;;;4.07;2.10;;;14.80;91.60;;;;;;5039386;28;20038;-71
2022/06/15 02:33:24;;;;;;;2.70;1.75;;;14.70;91.60;;;;;;5035000;28;20504;-71
2022/06/15 02:35:53;;;;;;;2.45;1.63;;;14.80;91.80;;;;;;5037735;28;21747;-71
2022/06/15 02:38:21;;;;;;;3.83;1.88;;;14.80;91.60;;;;;;5037942;28;20069;-71
2022/06/15 02:40:48;;;;;;;3.35;2.08;;;14.70;91.80;;;;;;5039529;28;20049;-71
2022/06/15 02:43:22;;;;;;;2.85;1.83;;;14.70;91.90;;;;;;5034347;28;20109;-71
2022/06/15 02:45:50;;;;;;;3.28;1.90;;;14.70;91.80;;;;;;5039245;28;20069;-71
2022/06/15 02:48:23;;;;;;;4.00;1.85;;;14.70;91.70;;;;;;5036378;28;20037;-71
2022/06/15 02:51:07;;;;;;;2.38;1.45;;;14.70;91.60;;;;;;5022496;28;20094;-71
2022/06/15 02:53:40;;;;;;;4.00;1.88;;;14.60;91.80;;;;;;5037440;28;20067;-71
2022/06/15 02:56:12;;;;;;;3.38;1.95;;;14.60;92.20;;;;;;5024264;28;20459;-71
2022/06/15 02:58:43;;;;;;;4.38;2.08;;;14.50;92.70;;;;;;5036902;28;20487;-71
2022/06/15 03:01:11;;;;;;;4.17;2.50;;;14.60;92.80;;;;;;5036499;28;20041;-71
2022/06/15 03:03:40;;;;;;;3.33;2.00;;;14.50;92.70;;;;;;5036161;28;20034;-71
2022/06/15 03:06:27;;;;;;;4.50;1.80;;;14.60;92.50;;;;;;5037936;28;20041;-71
2022/06/15 03:08:58;;;;;;;2.80;1.67;;;14.60;92.90;;;;;;5022670;28;20045;-71
2022/06/15 03:11:40;;;;;;;5.05;2.03;;;14.60;93.50;;;;;;5020540;28;20056;-71
2022/06/15 03:14:15;;;;;;;4.03;1.63;;;14.60;93.70;;;;;;5034526;28;20041;-71
2022/06/15 03:16:47;;;;;;;4.97;1.75;;;14.60;93.50;;;;;;5037934;28;20143;-71
2022/06/15 03:19:17;;;;;;;5.60;2.05;;;14.60;93.20;;;;;;5040030;28;20049;-71
2022/06/15 03:21:51;;;;;;;5.38;2.45;;;14.70;93.70;;;;;;5025716;28;20045;-71
2022/06/15 03:24:20;;;;;;;4.30;2.55;;;14.70;93.40;;;;;;5040411;28;20049;-71
2022/06/15 03:26:48;;;;;;;4.28;2.00;;;14.70;93.40;;;;;;5039455;28;20041;-71
2022/06/15 03:29:19;;;;;;;3.67;2.20;;;14.70;93.60;;;;;;5039140;28;20042;-70
2022/06/15 03:31:51;;;;;;;3.83;2.00;;;14.70;93.60;;;;;;5034735;28;20041;-71
2022/06/15 03:34:22;;;;;;;5.05;1.88;;;14.80;93.50;;;;;;5038466;28;20404;-71
2022/06/15 03:36:49;;;;;;;4.93;2.55;;;14.80;93.80;;;;;;5019300;28;20075;-71
2022/06/15 03:39:16;;;;;;;3.28;2.15;;;14.80;93.40;;;;;;5035998;28;20133;-71
2022/06/15 03:41:45;;;;;;;8.13;2.85;;;14.90;93.40;;;;;;5024747;28;20032;-71
2022/06/15 03:44:14;;;;;;;7.82;2.33;;;14.90;93.70;;;;;;5034418;28;20048;-70
2022/06/15 03:46:42;;;;;;;4.53;1.83;;;14.90;94.20;;;;;;5038087;28;20041;-71
2022/06/15 03:49:16;;;;;;;3.50;2.08;;;15.00;93.10;;;;;;5051221;28;20063;-71
2022/06/15 03:51:46;;;;;;;2.95;1.92;;;15.00;93.50;;;;;;5037155;28;20071;-71
2022/06/15 03:54:13;;;;;;;5.50;1.80;;;15.00;93.30;;;;;;5033135;28;20467;-71
2022/06/15 03:56:47;;;;;;;4.70;2.05;;;15.10;93.50;;;;;;5035385;28;20056;-71
2022/06/15 03:59:25;;;;;;;2.20;1.83;;;15.10;93.00;;;;;;5037110;28;20052;-71
2022/06/15 04:01:56;;;;;;;5.13;2.47;;;15.20;93.00;;;;;;5027439;28;20788;-71
2022/06/15 04:04:23;;;;;;;3.63;1.80;;;15.30;93.30;;;;;;5031705;28;20085;-71
2022/06/15 04:06:51;;;;;;;3.67;1.55;;;15.40;91.90;;;;;;5027040;28;20064;-70
2022/06/15 04:09:23;;;;;;;;;;;15.40;88.90;;;;;;5031915;28;20079;-71
2022/06/15 04:12:08;;;;;;;2.60;1.10;;;15.40;89.20;;;;;;5037393;28;19931;-71
2022/06/15 04:14:42;;;;;;;4.93;1.20;;;15.40;86.20;;;;;;5021378;28;20044;-70
2022/06/15 04:17:22;;;;;;;2.60;1.67;;;15.40;86.10;;;;;;5038299;28;20041;-70
2022/06/15 04:20:33;;;;;;;3.08;1.15;;;15.60;86.80;;;;;;5039292;28;20042;-70
2022/06/15 04:23:14;;;;;;;2.20;1.08;;;15.80;84.80;;;;;;5024186;28;20095;-71
2022/06/15 04:25:57;;;;;;;2.38;0.80;;;15.90;85.30;;;;;;5036542;28;20079;-71
2022/06/15 04:28:44;;;;;;;3.65;1.08;;;16.10;83.90;;;;;;5037271;28;20053;-70
2022/06/15 04:31:21;;;;;;;2.55;0.82;;;16.20;82.30;;;;;;5036558;28;20056;-71
2022/06/15 04:33:48;;;;;;;2.65;1.13;;;16.20;81.50;;;;;;5037481;28;20054;-70
2022/06/15 04:36:16;;;;;;;1.83;0.65;;;16.40;82.50;;;;;;5020346;28;20052;-70
2022/06/15 04:38:48;;;;;;;3.13;0.90;;;16.50;81.40;;;;;;5021093;28;20595;-71
2022/06/15 04:41:23;;;;;;;1.30;0.60;;;16.50;79.50;;;;;;5020754;28;20049;-71
2022/06/15 04:43:50;;;;;;;1.85;0.82;;;16.60;80.00;;;;;;5034606;28;20571;-71
2022/06/15 04:46:18;;;;;;;5.55;0.90;;;16.80;79.00;;;;;;5036497;28;20128;-70
2022/06/15 04:48:48;;;;;;;2.92;0.90;;;16.70;77.60;;;;;;5032276;28;20128;-71
2022/06/15 04:51:20;;;;;;;3.13;0.73;;;16.80;77.80;;;;;;5014947;28;20053;-71
2022/06/15 04:53:52;;;;;;;1.17;0.65;;;16.90;77.90;;;;;;5037304;28;20049;-70
2022/06/15 04:56:21;;;;;;;1.92;0.63;;;16.90;76.90;;;;;;5036805;28;20640;-71
2022/06/15 04:58:48;;;;;;;3.20;0.70;;;17.10;76.60;;;;;;5033431;28;20056;-70
2022/06/15 05:01:18;;;;;;;2.25;0.55;;;17.20;75.40;;;;;;5018631;28;20052;-70
2022/06/15 05:03:46;;;;;;;2.03;0.70;;;17.30;77.60;;;;;;4997844;28;20488;-72
2022/06/15 05:06:37;;;;;;;3.47;1.00;;;17.50;76.00;;;;;;4977553;28;20092;-71
2022/06/15 05:09:13;;;;;;;2.10;0.70;;;17.80;76.30;;;;;;4998173;28;20110;-71
2022/06/15 05:11:42;;;;;;;1.50;0.85;;;17.90;74.90;;;;;;4999649;28;20301;-71
2022/06/15 05:14:12;;;;;;;1.48;0.70;;;18.10;75.40;;;;;;4987317;28;20285;-71
2022/06/15 05:16:42;;;;;;;1.40;0.60;;;18.20;74.30;;;;;;4989153;28;20056;-71
2022/06/15 05:19:13;;;;;;;2.45;0.60;;;18.50;75.30;;;;;;4980347;28;20156;-71
2022/06/15 05:21:42;;;;;;;3.22;0.60;;;18.60;71.10;;;;;;4997806;28;20052;-71
2022/06/15 05:24:13;;;;;;;3.22;0.70;;;18.70;70.20;;;;;;5014810;28;20110;-71
2022/06/15 05:26:57;;;;;;;2.35;0.70;;;18.70;70.40;;;;;;4998563;28;20058;-71
2022/06/15 05:29:25;;;;;;;2.08;0.40;;;18.90;70.00;;;;;;5000297;28;20057;-71
2022/06/15 05:31:57;;;;;;;3.33;0.45;;;19.10;69.40;;;;;;4997460;28;20103;-71
2022/06/15 05:34:25;;;;;;;1.17;0.40;;;19.10;67.80;;;;;;4994607;28;22379;-71
2022/06/15 05:36:52;;;;;;;0.82;0.30;;;19.40;70.10;;;;;;5000145;28;20045;-71
2022/06/15 05:39:19;;;;;;;4.63;0.50;;;19.40;66.20;;;;;;4997893;28;20072;-71
2022/06/15 05:41:49;;;;;;;6.38;0.93;;;19.60;67.40;;;;;;4999536;28;20052;-72
2022/06/15 05:46:57;;;;;;;3.42;0.57;;;19.90;64.60;;;;;;5001856;28;20504;-71
2022/06/15 05:49:38;;;;;;;1.08;0.50;;;20.10;64.70;;;;;;4988773;28;20045;-71
2022/06/15 05:52:07;;;;;;;1.52;0.65;;;20.20;63.70;;;;;;4999181;28;22408;-71
2022/06/15 05:54:37;;;;;;;1.85;0.73;;;20.20;61.90;;;;;;4997334;28;20110;-72
2022/06/15 05:57:21;;;;;;;2.08;0.50;;;20.30;62.30;;;;;;4999916;28;20057;-71
2022/06/15 05:59:49;;;;;;;4.40;0.60;;;20.40;62.60;;;;;;4998266;28;20057;-71
2022/06/15 06:02:18;;;;;;;3.47;0.77;;;20.50;61.80;;;;;;5007733;28;21079;-71
2022/06/15 06:04:46;;;;;;;1.83;0.50;;;20.50;60.70;;;;;;4997063;28;20626;-72
2022/06/15 06:07:18;;;;;;;;;;;20.70;62.40;;;;;;4997203;28;20044;-72
2022/06/15 06:09:45;;;;;;;3.13;0.52;;;20.80;61.50;;;;;;5014100;28;19933;-71
2022/06/15 06:12:13;;;;;;;1.38;0.45;;;20.90;60.00;;;;;;4997761;28;20068;-71
2022/06/15 06:14:42;;;;;;;1.27;0.40;;;20.90;58.60;;;;;;5002790;28;20168;-71
2022/06/15 06:17:09;;;;;;;1.98;0.40;;;20.90;60.20;;;;;;4999291;28;20103;-70
2022/06/15 06:19:37;;;;;;;1.17;0.40;;;21.10;61.30;;;;;;4998323;28;20068;-70
2022/06/15 06:22:06;;;;;;;3.15;0.50;;;21.20;62.60;;;;;;4998807;28;20045;-71
2022/06/15 06:24:33;;;;;;;1.90;0.43;;;21.20;58.70;;;;;;4998396;28;20504;-70
2022/06/15 06:27:03;;;;;;;1.23;0.40;;;21.30;59.80;;;;;;4998732;28;20228;-71
2022/06/15 06:29:30;;;;;;;1.38;0.43;;;21.30;58.70;;;;;;4995046;28;20509;-71
2022/06/15 06:31:59;;;;;;;1.33;0.32;;;21.60;59.30;;;;;;4997456;28;20523;-72
2022/06/15 06:34:29;;;;;;;1.73;0.40;;;21.70;59.10;;;;;;5001528;28;20053;-72
2022/06/15 06:36:58;;;;;;;0.73;0.30;;;21.80;59.10;;;;;;5001856;28;20053;-71
2022/06/15 06:39:29;;;;;;;1.65;0.60;;;21.90;59.00;;;;;;4995257;28;20045;-71
2022/06/15 06:41:58;;;;;;;3.08;0.57;;;21.90;59.40;;;;;;4992972;28;20100;-72
2022/06/15 06:44:26;;;;;;;2.10;0.40;;;22.00;58.70;;;;;;4995508;28;20099;-72
2022/06/15 06:46:54;;;;;;;2.35;0.50;;;22.00;59.10;;;;;;4994212;28;20508;-72
2022/06/15 06:49:23;;;;;;;3.70;0.40;;;22.20;58.40;;;;;;4996289;28;20906;-72
2022/06/15 06:51:50;;;;;;;1.40;0.40;;;22.20;60.90;;;;;;4993561;28;20523;-72
2022/06/15 06:54:20;;;;;;;1.08;0.30;;;22.10;57.60;;;;;;4992059;28;20041;-71
2022/06/15 06:56:47;;;;;;;2.30;0.30;;;22.20;57.40;;;;;;4973526;28;22432;-72
2022/06/15 06:59:15;;;;;;;4.65;0.50;;;22.10;55.30;;;;;;4993552;28;22419;-72
2022/06/15 07:01:45;;;;;;;2.15;0.30;;;22.30;55.10;;;;;;4993184;28;20080;-71
2022/06/15 07:04:14;;;;;;;5.47;0.60;;;22.40;53.80;;;;;;4995062;28;20056;-72
2022/06/15 07:06:42;;;;;;;5.63;0.60;;;22.50;55.70;;;;;;4993257;28;21771;-72
2022/06/15 07:09:10;;;;;;;1.13;0.30;;;22.30;54.50;;;;;;5000207;28;22568;-71
2022/06/15 07:11:37;;;;;;;3.70;0.50;;;22.40;55.60;;;;;;4987726;28;22407;-71
2022/06/15 07:14:05;;;;;;;2.00;0.30;;;22.30;54.60;;;;;;4996039;28;20049;-71
2022/06/15 07:16:39;;;;;;;1.33;0.60;;;22.50;57.30;;;;;;4999346;28;20048;-71
2022/06/15 07:19:07;;;;;;;1.63;0.30;;;22.50;55.20;;;;;;4988901;28;20540;-72
2022/06/15 07:21:34;;;;;;;2.95;0.40;;;22.80;55.10;;;;;;4992235;28;20106;-71
2022/06/15 07:24:02;;;;;;;1.58;0.30;;;22.90;54.50;;;;;;4996670;28;20052;-72
2022/06/15 07:26:41;;;;;;;2.58;0.38;;;22.90;53.30;;;;;;4999932;28;20045;-72
2022/06/15 07:29:11;;;;;;;1.45;0.43;;;22.90;55.40;;;;;;5005021;28;20053;-71
2022/06/15 07:31:41;;;;;;;1.83;0.40;;;22.90;52.30;;;;;;4997075;28;20049;-72
2022/06/15 07:34:09;;;;;;;0.63;0.20;;;22.70;53.40;;;;;;4996835;28;22521;-71
2022/06/15 07:36:40;;;;;;;2.03;0.25;;;22.70;53.70;;;;;;4998925;28;20049;-72
2022/06/15 07:39:08;;;;;;;2.00;0.30;;;22.90;54.60;;;;;;4997869;28;20054;-72
2022/06/15 07:41:35;;;;;;;0.75;0.40;;;23.00;52.40;;;;;;4999066;28;20425;-72
2022/06/15 07:44:03;;;;;;;1.98;0.40;;;22.90;52.80;;;;;;4997477;28;20057;-72
2022/06/15 07:46:30;;;;;;;4.50;0.40;;;23.10;53.30;;;;;;4997462;28;20053;-72
2022/06/15 07:51:54;;;;;;;1.08;0.52;;;22.90;52.70;;;;;;4999314;28;20740;-72
2022/06/15 07:54:23;;;;;;;2.05;0.43;;;23.20;53.70;;;;;;4993546;28;20040;-72
2022/06/15 07:56:52;;;;;;;3.15;0.50;;;23.40;53.00;;;;;;4997495;28;20143;-71
2022/06/15 07:59:20;;;;;;;4.75;0.45;;;23.40;53.40;;;;;;4995172;28;20053;-71
2022/06/15 08:01:48;;;;;;;2.08;0.50;;;23.40;51.50;;;;;;4981759;28;20057;-71
2022/06/15 08:04:15;;;;;;;1.23;0.50;;;23.30;53.40;;;;;;4994665;28;20052;-72
2022/06/15 08:06:45;;;;;;;1.38;0.40;;;23.50;52.30;;;;;;4991804;28;20515;-71
2022/06/15 08:09:13;;;;;;;0.82;0.20;;;23.60;51.50;;;;;;4991663;28;20053;-71
2022/06/15 08:14:30;;;;;;;1.90;0.50;;;23.50;48.60;;;;;;4998195;28;20053;-72
2022/06/15 08:16:58;;;;;;;2.00;0.40;;;23.60;51.70;;;;;;4998899;28;20504;-72
2022/06/15 08:19:26;;;;;;;1.52;0.50;;;23.60;50.70;;;;;;4997349;28;22467;-72
2022/06/15 08:21:53;;;;;;;3.55;0.80;;;23.60;52.40;;;;;;4995834;28;20084;-71
2022/06/15 08:24:21;;;;;;;5.40;0.50;;;23.80;52.80;;;;;;4994622;28;20127;-72
2022/06/15 08:26:48;;;;;;;4.05;0.50;;;23.80;53.20;;;;;;4995251;28;20053;-73
2022/06/15 08:29:16;;;;;;;2.90;0.65;;;23.90;53.30;;;;;;4997273;28;20061;-71
2022/06/15 08:31:43;;;;;;;1.20;0.55;;;24.00;50.00;;;;;;4989764;28;20060;-73
2022/06/15 08:34:10;;;;;;;1.63;0.47;;;23.90;50.80;;;;;;5007410;28;20053;-74
2022/06/15 08:36:38;;;;;;;3.38;0.40;;;23.70;50.70;;;;;;4993336;28;20054;-73
2022/06/15 08:39:06;;;;;;;1.60;0.50;;;23.60;50.30;;;;;;5000617;28;20053;-71
2022/06/15 08:41:35;;;;;;;3.25;0.40;;;23.70;52.10;;;;;;5005379;28;20057;-72
2022/06/15 08:44:18;;;;;;;2.33;0.40;;;23.80;51.30;;;;;;5002710;28;22372;-73
2022/06/15 08:46:57;;;;;;;2.15;0.50;;;23.60;50.90;;;;;;4992225;28;20860;-73
2022/06/15 08:49:43;;;;;;;3.33;0.45;;;23.50;50.20;;;;;;5005046;28;21113;-72
2022/06/15 08:52:27;;;;;;;2.67;0.80;;;23.50;50.80;;;;;;4991667;28;20054;-73
2022/06/15 08:55:22;;;;;;;14.02;2.72;;;23.50;50.50;;;;;;4996362;28;20168;-73
2022/06/15 08:58:00;;;;;;;3.83;0.50;;;23.70;53.50;;;;;;5012406;28;20060;-72
2022/06/15 09:00:33;;;;;;;7.45;1.05;;;23.80;52.30;;;;;;4998726;28;20045;-72
2022/06/15 09:03:28;;;;;;;2.75;0.60;;;23.70;51.00;;;;;;5000339;28;20079;-72
2022/06/15 09:06:17;;;;;;;2.42;0.40;;;24.00;53.20;;;;;;4997820;28;20052;-71
2022/06/15 09:09:07;;;;;;;1.95;0.30;;;24.10;51.70;;;;;;4999822;28;20056;-74
2022/06/15 09:15:17;;;;;;;1.55;0.40;;;23.80;51.70;;;;;;5003682;28;20065;-71
2022/06/15 09:17:47;;;;;;;1.23;0.40;;;23.90;50.70;;;;;;4995654;28;20096;-73
2022/06/15 09:20:25;;;;;;;2.13;0.98;;;23.90;50.60;;;;;;4983706;28;22420;-74
2022/06/15 09:23:06;;;;;;;0.63;0.28;;;24.00;51.70;;;;;;4999777;28;20045;-73
2022/06/15 09:25:46;;;;;;;5.93;1.10;;;23.80;51.90;;;;;;5000922;28;20048;-73
2022/06/15 09:28:25;;;;;;;2.25;0.70;;;24.10;52.30;;;;;;4997763;28;22503;-73
2022/06/15 09:31:00;;;;;;;2.25;0.57;;;24.10;50.60;;;;;;4999118;28;20042;-74
2022/06/15 09:33:37;;;;;;;4.10;0.73;;;24.10;51.30;;;;;;4996734;28;20052;-73
2022/06/15 09:36:22;;;;;;;2.08;0.73;;;24.10;50.80;;;;;;4998786;28;20234;-73
2022/06/15 09:38:49;;;;;;;2.17;0.65;;;24.10;53.10;;;;;;4997438;28;20052;-73
2022/06/15 09:41:25;;;;;;;1.92;0.50;;;24.10;52.30;;;;;;4980257;28;20056;-72
2022/06/15 09:44:12;;;;;;;1.88;0.40;;;24.10;51.40;;;;;;4998651;28;20091;-72
2022/06/15 09:47:02;;;;;;;2.95;0.47;;;24.10;50.40;;;;;;5000054;28;20041;-72
2022/06/15 09:49:52;;;;;;;1.25;0.28;;;24.20;50.80;;;;;;4999197;28;20060;-71
2022/06/15 09:52:25;;;;;;;0.75;0.30;;;24.10;48.50;;;;;;4994286;28;20037;-72
2022/06/15 09:55:33;;;;;;;1.05;0.30;;;23.90;49.40;;;;;;4984404;28;20402;-73
2022/06/15 09:58:31;;;;;;;1.50;0.40;;;24.10;49.90;;;;;;4994341;28;20804;-72
2022/06/15 10:00:58;;;;;;;1.33;0.40;;;24.00;48.30;;;;;;4995518;28;20065;-72
2022/06/15 10:03:32;;;;;;;2.58;0.40;;;24.00;49.00;;;;;;4995870;28;20524;-72
2022/06/15 10:06:18;;;;;;;2.67;0.40;;;24.10;50.00;;;;;;4997849;28;20045;-74
2022/06/15 10:08:46;;;;;;;1.52;0.40;;;24.30;50.10;;;;;;4998140;28;20060;-74
2022/06/15 10:11:22;;;;;;;2.30;0.60;;;24.10;48.30;;;;;;4990267;28;22507;-73
2022/06/15 10:13:50;;;;;;;0.88;0.30;;;24.00;50.00;;;;;;4994416;28;20048;-74
2022/06/15 10:16:23;;;;;;;2.38;0.30;;;24.00;48.50;;;;;;4994581;28;22341;-74
2022/06/15 10:18:53;;;;;;;2.60;0.50;;;24.10;48.80;;;;;;4994409;28;20064;-73
2022/06/15 10:21:32;;;;;;;1.75;0.60;;;24.10;50.10;;;;;;5008404;28;20045;-73
2022/06/15 10:24:19;;;;;;;3.03;0.40;;;24.20;49.90;;;;;;4996924;28;20709;-74
2022/06/15 10:26:49;;;;;;;2.25;0.45;;;24.20;50.50;;;;;;4982845;28;20053;-74
2022/06/15 10:29:18;;;;;;;0.82;0.30;;;24.20;51.70;;;;;;4996969;28;20057;-74
2022/06/15 10:31:57;;;;;;;2.28;0.40;;;24.30;52.50;;;;;;4995593;28;20075;-73
2022/06/15 10:34:31;;;;;;;1.48;0.40;;;24.10;48.70;;;;;;4999056;28;20064;-74
2022/06/15 10:37:03;;;;;;;1.65;0.40;;;24.20;50.30;;;;;;5000310;28;22436;-74
2022/06/15 10:39:34;;;;;;;5.55;0.50;;;24.10;49.20;;;;;;5000114;28;20198;-73
2022/06/15 10:42:20;;;;;;;2.20;0.52;;;24.10;48.90;;;;;;4986798;28;20054;-74
2022/06/15 10:45:00;;;;;;;2.17;0.38;;;24.10;47.70;;;;;;4996971;28;20049;-73
2022/06/15 10:48:00;;;;;;;0.88;0.30;;;24.20;48.70;;;;;;4997937;28;22511;-72
2022/06/15 10:50:40;;;;;;;1.05;0.32;;;24.30;48.30;;;;;;4993832;28;20053;-73
2022/06/15 10:54:12;;;;;;;3.15;0.63;;;24.10;50.20;;;;;;5010887;28;22374;-73
2022/06/15 11:02:32;;;;;;;3.75;0.43;;;24.50;49.70;;;;;;5005792;28;20184;-73
2022/06/15 11:05:09;;;;;;;1.08;0.40;;;24.40;47.80;;;;;;5001773;28;20132;-72
2022/06/15 11:07:52;;;;;;;3.03;0.35;;;24.40;49.50;;;;;;5000981;28;20234;-73
2022/06/15 11:10:36;;;;;;;1.80;0.50;;;24.50;50.50;;;;;;4989520;28;20079;-73
2022/06/15 11:13:27;;;;;;;4.00;0.40;;;24.30;47.80;;;;;;4997984;28;20056;-73
2022/06/15 11:18:44;;;;;;;2.00;0.30;;;24.60;50.80;;;;;;4994148;28;20064;-73
2022/06/15 11:21:25;;;;;;;1.10;0.32;;;24.80;51.70;;;;;;5001828;28;20041;-72
2022/06/15 11:24:22;;;;;;;0.88;0.30;;;24.80;48.80;;;;;;4998999;28;20053;-73
2022/06/15 11:26:54;;;;;;;2.50;0.47;;;24.80;49.60;;;;;;4999886;28;20077;-74
2022/06/15 11:29:33;;;;;;;2.35;0.70;;;24.90;49.60;;;;;;5000109;28;20057;-73
2022/06/15 11:32:12;;;;;;;0.93;0.30;;;24.80;48.20;;;;;;5006934;28;20041;-73
2022/06/15 11:34:56;;;;;;;1.30;0.40;;;24.90;49.50;;;;;;5001338;28;20068;-72
2022/06/15 11:37:35;;;;;;;1.80;0.40;;;24.90;48.70;;;;;;5010201;28;20053;-73
2022/06/15 11:40:26;;;;;;;1.35;0.80;;;25.00;49.40;;;;;;4999827;28;20179;-73
2022/06/15 11:42:53;;;;;;;1.10;0.32;;;24.90;46.70;;;;;;4995681;28;20595;-73
2022/06/15 11:45:50;;;;;;;1.67;0.70;;;24.80;49.00;;;;;;4999907;28;20347;-72
2022/06/15 11:48:42;;;;;;;1.48;0.40;;;24.90;47.90;;;;;;5000931;28;20092;-73
2022/06/15 11:51:18;;;;;;;1.30;0.30;;;25.00;48.70;;;;;;5012537;28;20054;-72
2022/06/15 11:54:22;;;;;;;0.68;0.40;;;25.00;49.60;;;;;;4996895;28;22413;-73
2022/06/15 11:57:10;;;;;;;2.95;0.40;;;25.00;47.50;;;;;;4995979;28;20228;-74
2022/06/15 11:59:50;;;;;;;3.75;0.65;;;25.00;47.30;;;;;;5000215;28;20049;-73
2022/06/15 12:02:40;;;;;;;2.13;0.40;;;25.00;48.80;;;;;;4997065;28;20053;-73
2022/06/15 12:05:19;;;;;;;1.20;0.35;;;25.00;49.30;;;;;;4996650;28;22433;-72
2022/06/15 12:08:28;;;;;;;2.95;0.40;;;24.90;48.10;;;;;;4997290;28;20060;-73
2022/06/15 12:11:00;;;;;;;1.70;0.65;;;24.90;49.10;;;;;;4999044;28;20919;-72
2022/06/15 12:13:46;;;;;;;1.42;0.40;;;25.00;49.20;;;;;;4994820;28;20797;-73
2022/06/15 12:16:29;;;;;;;3.05;0.40;;;24.90;49.30;;;;;;4998018;28;20053;-72
2022/06/15 12:19:28;;;;;;;1.60;0.30;;;25.00;46.60;;;;;;4996933;28;20048;-73
2022/06/15 12:22:12;;;;;;;2.95;0.40;;;24.80;47.50;;;;;;4996796;28;20071;-73
2022/06/15 12:24:48;;;;;;;2.25;0.60;;;24.90;47.50;;;;;;4991988;28;20049;-72
2022/06/15 12:27:41;;;;;;;2.35;0.50;;;24.80;47.50;;;;;;4997632;28;20049;-73
2022/06/15 12:30:48;;;;;;;1.58;0.30;;;24.70;46.80;;;;;;4998872;28;20064;-72
2022/06/15 12:33:35;;;;;;;1.95;0.40;;;24.80;46.20;;;;;;4993614;28;20813;-73
2022/06/15 12:36:24;;;;;;;3.30;0.60;;;24.80;47.70;;;;;;4995835;28;20064;-72
2022/06/15 12:39:15;;;;;;;6.93;1.35;;;24.70;47.00;;;;;;4997416;28;20060;-73
2022/06/15 12:44:51;;;;;;;2.40;0.50;;;24.80;46.20;;;;;;4997939;28;20103;-73
2022/06/15 12:47:23;;;;;;;1.48;0.43;;;24.70;46.50;;;;;;4997771;28;20048;-73
2022/06/15 12:50:31;;;;;;;1.88;0.35;;;24.70;46.30;;;;;;4996433;28;22430;-73
2022/06/15 12:53:03;;;;;;;4.32;0.50;;;24.70;48.70;;;;;;4996581;28;20175;-73
2022/06/15 12:55:43;;;;;;;;;;;24.90;49.20;;;;;;4984739;28;20049;-72
2022/06/15 12:58:15;;;;;;;5.30;0.47;;;25.00;48.40;;;;;;5005024;28;22442;-72
2022/06/15 13:00:51;;;;;;;3.13;0.55;;;25.00;46.80;;;;;;4997399;28;20056;-73
2022/06/15 13:03:47;;;;;;;2.58;0.50;;;25.00;48.10;;;;;;4996058;28;20744;-73
2022/06/15 13:06:33;;;;;;;2.35;0.50;;;25.00;48.00;;;;;;4992722;28;20060;-72
2022/06/15 13:09:22;;;;;;;2.25;0.50;;;25.20;49.90;;;;;;4974592;28;20313;-72
2022/06/15 13:12:07;;;;;;;2.63;0.60;;;25.30;48.70;;;;;;4995738;28;21069;-73
2022/06/15 13:14:51;;;;;;;2.58;0.60;;;25.40;48.10;;;;;;4993958;28;20053;-72
2022/06/15 13:17:23;;;;;;;0.68;0.30;;;25.40;48.50;;;;;;4996171;28;20508;-72
2022/06/15 13:20:00;;;;;;;0.70;0.63;;;25.40;48.70;;;;;;4994551;28;20950;-73
2022/06/15 13:22:32;;;;;;;2.03;0.32;;;25.40;48.20;;;;;;4996719;28;20053;-72
2022/06/15 13:25:09;;;;;;;1.73;0.40;;;25.40;47.40;;;;;;4977125;28;20547;-72
2022/06/15 13:27:40;;;;;;;3.45;0.95;;;25.20;46.80;;;;;;5005620;28;20060;-72
2022/06/15 13:30:30;;;;;;;1.02;0.40;;;25.20;45.70;;;;;;4997658;28;20068;-72
2022/06/15 13:33:01;;;;;;;2.00;0.43;;;25.30;46.70;;;;;;4994918;28;20041;-72
2022/06/15 13:35:32;;;;;;;2.00;0.30;;;25.10;45.50;;;;;;5008431;28;20140;-73
2022/06/15 13:38:28;;;;;;;3.00;0.50;;;25.10;47.00;;;;;;4979255;28;20175;-72
2022/06/15 13:40:59;;;;;;;1.92;0.40;;;25.10;46.60;;;;;;4993825;28;21263;-73
2022/06/15 13:43:46;;;;;;;3.03;0.52;;;25.20;47.10;;;;;;4991966;28;20045;-73
2022/06/15 13:46:27;;;;;;;2.03;0.40;;;25.20;47.30;;;;;;4995795;28;20050;-73
2022/06/15 13:49:22;;;;;;;2.03;0.50;;;25.20;45.90;;;;;;5001323;28;20056;-73
2022/06/15 13:51:55;;;;;;;0.90;0.45;;;25.30;46.20;;;;;;4981355;28;20110;-73
2022/06/15 13:55:02;;;;;;;2.35;0.60;;;25.30;45.80;;;;;;4995993;28;20049;-73
2022/06/15 13:57:36;;;;;;;2.45;0.77;;;25.20;45.90;;;;;;4992674;28;20048;-73